This is the latest recevied weather packets stored in our database for station/object IZ2MHJ-3. If no packets are shown the sender has not sent any weather packets the latest 1 day(s).
| Time | Temp. | Humidity | Pressure | Rain* | Wind** | Luminosity | Snow |
|---|---|---|---|---|---|---|---|
| 1777761863 | 15.56° C | 52% | 1022.6 hPa | - | - | - | - |
| 1777760663 | 15.56° C | 52% | 1022.8 hPa | - | - | - | - |
| 1777759463 | 16.11° C | 50% | 1022.7 hPa | - | - | - | - |
| 1777758263 | 16.67° C | 49% | 1022.6 hPa | - | - | - | - |
| 1777757062 | 17.22° C | 48% | 1022.6 hPa | - | - | - | - |
| 1777755862 | 17.22° C | 48% | 1022.4 hPa | - | - | - | - |
| 1777754661 | 17.78° C | 47% | 1022.5 hPa | - | - | - | - |
| 1777753461 | 17.78° C | 47% | 1022.5 hPa | - | - | - | - |
| 1777752261 | 18.33° C | 46% | 1022.6 hPa | - | - | - | - |
| 1777751061 | 19.44° C | 44% | 1022.5 hPa | - | - | - | - |
| 1777749860 | 21.11° C | 38% | 1022.2 hPa | - | - | - | - |
| 1777748660 | 21.67° C | 35% | 1022.1 hPa | - | - | - | - |
| 1777747460 | 22.22° C | 33% | 1021.8 hPa | - | - | - | - |
| 1777746259 | 22.22° C | 33% | 1021.8 hPa | - | - | - | - |
| 1777745059 | 23.89° C | 31% | 1021.6 hPa | - | - | - | - |
| 1777743859 | 24.44° C | 30% | 1021.4 hPa | - | - | - | - |
| 1777742658 | 25° C | 28% | 1021.4 hPa | - | - | - | - |
| 1777741458 | 26.11° C | 27% | 1021.4 hPa | - | - | - | - |
| 1777740258 | 27.22° C | 27% | 1021.4 hPa | - | - | - | - |
| 1777739057 | 26.11° C | 27% | 1021.7 hPa | - | - | - | - |
| 1777737857 | 26.67° C | 27% | 1021.8 hPa | - | - | - | - |
| 1777736657 | 25.56° C | 28% | 1022.1 hPa | - | - | - | - |
| 1777735457 | 22.78° C | 32% | 1000.9 hPa | - | - | - | - |
| 1777731053 | 28.89° C | 26% | 1022.8 hPa | - | - | - | - |
| 1777729853 | 25.56° C | 28% | 1023.4 hPa | - | - | - | - |
* Rain since midnight (hover to see other rain measurements)
** Current wind speed in m/s (hover to see current wind gust speed)